Time;durP1;ratioP1;P1;durP2;ratioP2;P2;SDS_P1;SDS_P2;PMS_P1;PMS_P2;Temp;Humidity;BMP_temperature;BMP_pressure;BME280_temperature;BME280_humidity;BME280_pressure;Samples;Min_cycle;Max_cycle;Signal;HPM_P1;HPM_P2
2021/01/30 00:00:40;;;;;;;15.23;7.80;;;;;;;;;;5016100;28;20718;-75
2021/01/30 00:03:07;;;;;;;25.23;9.75;;;;;;;;;;5033505;28;20201;-77
2021/01/30 00:05:34;;;;;;;17.50;9.60;;;;;;;;;;5020039;28;20221;-76
2021/01/30 00:08:01;;;;;;;14.43;8.25;;;;;;;;;;5020247;28;20223;-75
2021/01/30 00:10:28;;;;;;;11.83;7.43;;;;;;;;;;5031228;28;20201;-75
2021/01/30 00:12:56;;;;;;;11.33;7.20;;;;;;;;;;5030885;28;20502;-76
2021/01/30 00:15:23;;;;;;;9.00;6.30;;;;;;;;;;5013646;28;20502;-76
2021/01/30 00:17:51;;;;;;;9.23;6.15;;;;;;;;;;5014664;28;20324;-73
2021/01/30 00:20:20;;;;;;;9.88;6.80;;;;;;;;;;5016025;28;20198;-75
2021/01/30 00:22:47;;;;;;;15.10;7.40;;;;;;;;;;5015999;28;20209;-77
2021/01/30 00:25:14;;;;;;;8.65;6.80;;;;;;;;;;5033274;28;20518;-76
2021/01/30 00:27:41;;;;;;;10.90;7.93;;;;;;;;;;5019315;28;20234;-76
2021/01/30 00:30:09;;;;;;;12.35;7.90;;;;;;;;;;5021118;28;20281;-76
2021/01/30 00:32:36;;;;;;;11.77;7.50;;;;;;;;;;5017931;28;20345;-75
2021/01/30 00:35:07;;;;;;;14.63;9.23;;;;;;;;;;5034891;28;20228;-76
2021/01/30 00:37:36;;;;;;;13.40;7.90;;;;;;;;;;5034889;28;20235;-75
2021/01/30 00:40:03;;;;;;;14.93;9.10;;;;;;;;;;5035993;28;20906;-75
2021/01/30 00:42:29;;;;;;;14.07;8.02;;;;;;;;;;5036958;28;20229;-75
2021/01/30 00:44:56;;;;;;;17.98;7.85;;;;;;;;;;5037118;28;20258;-76
2021/01/30 00:47:23;;;;;;;10.25;7.00;;;;;;;;;;5037115;28;20258;-75
2021/01/30 00:49:50;;;;;;;15.93;8.90;;;;;;;;;;5022291;28;20200;-75
2021/01/30 00:52:19;;;;;;;13.55;7.30;;;;;;;;;;5007596;28;20240;-75
2021/01/30 00:54:46;;;;;;;11.75;6.97;;;;;;;;;;5034690;28;20260;-75
2021/01/30 00:57:13;;;;;;;11.77;8.02;;;;;;;;;;5016809;28;20239;-75
2021/01/30 00:59:41;;;;;;;13.77;6.55;;;;;;;;;;5034880;28;20223;-75
2021/01/30 01:02:08;;;;;;;13.73;6.47;;;;;;;;;;5035654;28;20221;-75
2021/01/30 01:04:35;;;;;;;13.90;7.00;;;;;;;;;;5036919;28;20200;-76
2021/01/30 01:07:02;;;;;;;11.10;6.60;;;;;;;;;;5027757;28;20476;-74
2021/01/30 01:09:30;;;;;;;10.57;6.43;;;;;;;;;;5020637;28;20204;-74
2021/01/30 01:11:56;;;;;;;8.88;6.10;;;;;;;;;;5033620;28;20199;-75
2021/01/30 01:14:26;;;;;;;10.23;6.28;;;;;;;;;;5034294;28;20213;-74
2021/01/30 01:16:52;;;;;;;8.90;6.20;;;;;;;;;;5034159;28;20278;-76
2021/01/30 01:19:19;;;;;;;16.17;8.07;;;;;;;;;;5034899;28;20204;-74
2021/01/30 01:21:49;;;;;;;14.48;6.75;;;;;;;;;;5036468;28;20199;-75
2021/01/30 01:24:16;;;;;;;9.05;6.30;;;;;;;;;;5018830;28;20629;-75
2021/01/30 01:26:45;;;;;;;8.82;6.50;;;;;;;;;;5036507;28;20799;-75
2021/01/30 01:29:13;;;;;;;15.30;7.20;;;;;;;;;;5027039;28;20274;-76
2021/01/30 01:31:40;;;;;;;12.05;7.10;;;;;;;;;;5020249;28;20190;-76
2021/01/30 01:34:07;;;;;;;12.90;6.82;;;;;;;;;;5013881;28;20208;-75
2021/01/30 01:36:34;;;;;;;7.53;5.38;;;;;;;;;;5013847;28;20228;-76
2021/01/30 01:39:01;;;;;;;9.18;5.80;;;;;;;;;;5014279;28;20206;-76
2021/01/30 01:41:28;;;;;;;16.90;8.10;;;;;;;;;;5020732;28;20261;-74
2021/01/30 01:43:55;;;;;;;10.77;5.63;;;;;;;;;;5035821;28;20195;-75
2021/01/30 01:46:25;;;;;;;9.93;5.35;;;;;;;;;;5036052;28;20241;-75
2021/01/30 01:48:56;;;;;;;11.23;5.30;;;;;;;;;;5035932;28;20248;-76
2021/01/30 01:51:27;;;;;;;16.38;6.07;;;;;;;;;;5025646;28;20184;-75
2021/01/30 01:53:54;;;;;;;10.02;5.68;;;;;;;;;;5002246;28;20245;-75
2021/01/30 01:56:23;;;;;;;11.00;6.90;;;;;;;;;;5013111;28;20226;-75
2021/01/30 01:58:52;;;;;;;14.73;6.63;;;;;;;;;;4996407;28;20208;-75
2021/01/30 02:01:20;;;;;;;11.25;6.15;;;;;;;;;;5013991;28;20747;-75
2021/01/30 02:03:50;;;;;;;9.38;6.30;;;;;;;;;;5023093;28;20200;-75
2021/01/30 02:06:17;;;;;;;13.10;6.75;;;;;;;;;;5035763;28;20322;-75
2021/01/30 02:08:44;;;;;;;12.35;6.22;;;;;;;;;;5035794;28;20206;-75
2021/01/30 02:11:12;;;;;;;11.48;6.93;;;;;;;;;;5035735;28;20208;-75
2021/01/30 02:13:42;;;;;;;11.25;6.25;;;;;;;;;;5023737;28;20261;-75
2021/01/30 02:16:14;;;;;;;8.27;6.22;;;;;;;;;;5021846;28;20270;-75
2021/01/30 02:18:52;;;;;;;10.15;6.13;;;;;;;;;;5032864;28;20202;-75
2021/01/30 02:21:33;;;;;;;12.70;7.70;;;;;;;;;;5033248;28;20608;-77
2021/01/30 02:24:19;;;;;;;9.77;7.50;;;;;;;;;;5032480;28;20207;-74
2021/01/30 02:27:01;;;;;;;11.65;7.45;;;;;;;;;;5034319;28;20251;-74
2021/01/30 02:29:42;;;;;;;12.98;8.65;;;;;;;;;;5018103;28;20206;-77
2021/01/30 02:32:20;;;;;;;15.43;8.13;;;;;;;;;;5034575;28;20698;-75
2021/01/30 02:34:51;;;;;;;17.83;10.05;;;;;;;;;;5029478;28;20287;-75
2021/01/30 02:37:21;;;;;;;13.95;8.35;;;;;;;;;;5018670;28;20628;-75
2021/01/30 02:39:51;;;;;;;14.77;8.88;;;;;;;;;;5030353;28;20776;-74
2021/01/30 02:42:19;;;;;;;11.82;8.88;;;;;;;;;;5032786;28;20198;-76
2021/01/30 02:44:49;;;;;;;13.65;8.55;;;;;;;;;;5015150;28;20249;-76
2021/01/30 02:47:17;;;;;;;16.48;8.85;;;;;;;;;;5032832;28;20207;-75
2021/01/30 02:49:47;;;;;;;15.18;8.90;;;;;;;;;;5034954;28;20206;-75
2021/01/30 02:52:15;;;;;;;16.85;8.70;;;;;;;;;;5017406;28;20732;-76
2021/01/30 02:54:42;;;;;;;17.40;10.25;;;;;;;;;;5034601;28;20218;-74
2021/01/30 02:57:10;;;;;;;18.33;11.98;;;;;;;;;;5026710;28;20234;-74
2021/01/30 02:59:41;;;;;;;17.48;11.73;;;;;;;;;;5001251;28;20199;-75
2021/01/30 03:02:08;;;;;;;23.98;16.08;;;;;;;;;;5031337;28;20201;-75
2021/01/30 03:04:37;;;;;;;36.13;22.25;;;;;;;;;;5032446;28;20760;-75
2021/01/30 03:07:12;;;;;;;38.60;23.73;;;;;;;;;;5032066;28;20235;-75
2021/01/30 03:09:40;;;;;;;36.40;22.98;;;;;;;;;;5032818;28;20532;-75
2021/01/30 03:12:10;;;;;;;35.25;21.85;;;;;;;;;;5017194;28;20205;-75
2021/01/30 03:14:41;;;;;;;37.88;23.40;;;;;;;;;;5016957;28;20206;-76
2021/01/30 03:17:08;;;;;;;39.10;26.35;;;;;;;;;;5016922;28;20331;-75
2021/01/30 03:19:35;;;;;;;41.20;26.40;;;;;;;;;;5024005;28;20204;-75
2021/01/30 03:22:05;;;;;;;39.72;25.48;;;;;;;;;;5018097;28;20201;-75
2021/01/30 03:24:32;;;;;;;39.95;24.90;;;;;;;;;;4994294;28;20203;-74
2021/01/30 03:26:59;;;;;;;45.00;26.35;;;;;;;;;;5011980;28;20323;-74
2021/01/30 03:29:26;;;;;;;41.17;24.65;;;;;;;;;;5012090;28;20282;-75
2021/01/30 03:31:53;;;;;;;36.17;22.95;;;;;;;;;;5021116;28;20200;-74
2021/01/30 03:34:20;;;;;;;32.10;21.42;;;;;;;;;;5034153;28;20202;-74
2021/01/30 03:36:47;;;;;;;34.50;20.10;;;;;;;;;;5033746;28;20322;-74
2021/01/30 03:39:14;;;;;;;29.13;20.55;;;;;;;;;;5033955;28;20680;-75
2021/01/30 03:41:41;;;;;;;32.80;21.50;;;;;;;;;;5022975;28;20211;-74
2021/01/30 03:44:08;;;;;;;27.38;17.13;;;;;;;;;;5017627;28;20200;-74
2021/01/30 03:46:36;;;;;;;30.83;19.25;;;;;;;;;;5011218;28;20693;-74
2021/01/30 03:49:03;;;;;;;32.80;16.40;;;;;;;;;;5011846;28;20290;-74
2021/01/30 03:51:30;;;;;;;28.20;16.73;;;;;;;;;;5012014;28;20222;-73
2021/01/30 03:53:56;;;;;;;21.75;14.35;;;;;;;;;;5020717;28;20260;-74
2021/01/30 03:56:23;;;;;;;20.48;13.20;;;;;;;;;;5033564;28;20231;-75
2021/01/30 03:58:50;;;;;;;19.65;13.25;;;;;;;;;;5034033;28;20615;-75
2021/01/30 04:01:17;;;;;;;29.83;15.55;;;;;;;;;;5033823;28;20298;-74
2021/01/30 04:03:47;;;;;;;23.60;14.93;;;;;;;;;;5022882;28;20200;-75
2021/01/30 04:06:14;;;;;;;27.63;15.95;;;;;;;;;;5016191;28;21590;-74
2021/01/30 04:08:41;;;;;;;22.75;14.98;;;;;;;;;;5011569;28;20241;-73
2021/01/30 04:11:08;;;;;;;25.05;15.80;;;;;;;;;;5011693;28;20203;-74
2021/01/30 04:13:35;;;;;;;28.35;17.40;;;;;;;;;;5011850;28;20230;-74
2021/01/30 04:16:02;;;;;;;22.90;15.60;;;;;;;;;;5003682;28;20769;-73
2021/01/30 04:18:29;;;;;;;28.30;16.95;;;;;;;;;;5033658;28;20600;-74
2021/01/30 04:20:57;;;;;;;29.73;17.40;;;;;;;;;;5033419;28;20278;-74
2021/01/30 04:23:23;;;;;;;23.73;16.20;;;;;;;;;;5033386;28;20202;-74
2021/01/30 04:25:50;;;;;;;28.60;17.23;;;;;;;;;;5022419;28;20211;-75
2021/01/30 04:28:17;;;;;;;23.80;16.80;;;;;;;;;;5019274;28;20202;-75
2021/01/30 04:30:44;;;;;;;27.42;17.70;;;;;;;;;;5030603;28;20621;-74
2021/01/30 04:33:11;;;;;;;27.23;18.08;;;;;;;;;;5030941;28;20202;-74
2021/01/30 04:35:38;;;;;;;26.90;18.15;;;;;;;;;;5031130;28;20265;-74
2021/01/30 04:38:07;;;;;;;28.40;18.95;;;;;;;;;;5031433;28;20304;-75
2021/01/30 04:40:35;;;;;;;25.48;19.45;;;;;;;;;;5033502;28;20192;-74
2021/01/30 04:43:06;;;;;;;30.00;20.17;;;;;;;;;;5033313;28;20195;-74
2021/01/30 04:45:38;;;;;;;32.35;19.20;;;;;;;;;;5033351;28;20636;-74
2021/01/30 04:48:10;;;;;;;33.55;20.35;;;;;;;;;;5020959;28;20223;-74
2021/01/30 04:50:38;;;;;;;28.35;19.70;;;;;;;;;;5002930;28;20200;-75
2021/01/30 04:53:12;;;;;;;31.05;19.88;;;;;;;;;;5030955;28;20210;-74
2021/01/30 04:55:46;;;;;;;28.65;19.70;;;;;;;;;;5030937;28;20219;-73
2021/01/30 04:58:15;;;;;;;26.20;18.25;;;;;;;;;;5030947;28;20223;-74
2021/01/30 05:00:53;;;;;;;29.98;18.75;;;;;;;;;;5014537;28;20294;-73
2021/01/30 05:03:27;;;;;;;27.02;17.77;;;;;;;;;;5033331;28;20206;-74
2021/01/30 05:05:55;;;;;;;27.67;17.45;;;;;;;;;;5033204;28;20223;-74
2021/01/30 05:08:27;;;;;;;25.77;17.42;;;;;;;;;;5032068;28;20807;-74
2021/01/30 05:10:56;;;;;;;29.17;18.35;;;;;;;;;;4999526;28;20255;-74
2021/01/30 05:13:26;;;;;;;31.10;19.60;;;;;;;;;;5013590;28;20207;-73
2021/01/30 05:15:55;;;;;;;30.48;18.30;;;;;;;;;;5011672;28;20592;-74
2021/01/30 05:18:23;;;;;;;27.05;17.90;;;;;;;;;;4997678;28;20227;-74
2021/01/30 05:20:52;;;;;;;30.65;19.42;;;;;;;;;;5015075;28;20218;-73
2021/01/30 05:23:19;;;;;;;30.15;19.48;;;;;;;;;;5034212;28;20282;-74
2021/01/30 05:25:49;;;;;;;31.60;20.05;;;;;;;;;;5036467;28;20222;-73
2021/01/30 05:28:19;;;;;;;31.42;19.30;;;;;;;;;;5036711;28;20346;-75
2021/01/30 05:30:53;;;;;;;28.40;17.67;;;;;;;;;;5033530;28;20207;-74
2021/01/30 05:33:26;;;;;;;25.02;16.83;;;;;;;;;;5003123;28;20242;-74
2021/01/30 05:35:56;;;;;;;25.90;17.35;;;;;;;;;;5029731;28;20358;-73
2021/01/30 05:38:31;;;;;;;30.52;18.70;;;;;;;;;;5033738;28;20322;-75
2021/01/30 05:41:02;;;;;;;30.63;19.48;;;;;;;;;;5016570;28;20261;-75
2021/01/30 05:43:33;;;;;;;28.67;18.00;;;;;;;;;;5034025;28;20218;-75
2021/01/30 05:46:01;;;;;;;32.00;20.00;;;;;;;;;;5036413;28;20222;-74
2021/01/30 05:48:29;;;;;;;31.75;19.30;;;;;;;;;;5036038;28;20208;-75
2021/01/30 05:50:58;;;;;;;28.92;18.08;;;;;;;;;;5035823;28;20282;-73
2021/01/30 05:53:26;;;;;;;31.00;19.45;;;;;;;;;;5011730;28;20283;-74
2021/01/30 05:55:54;;;;;;;31.70;19.58;;;;;;;;;;5019883;28;20212;-75
2021/01/30 05:58:24;;;;;;;31.08;18.98;;;;;;;;;;5031673;28;20306;-75
2021/01/30 06:00:51;;;;;;;30.45;20.30;;;;;;;;;;5033507;28;20204;-75
2021/01/30 06:03:21;;;;;;;30.38;18.80;;;;;;;;;;5033436;28;20202;-75
2021/01/30 06:05:50;;;;;;;27.80;18.75;;;;;;;;;;5033828;28;20301;-74
2021/01/30 06:08:19;;;;;;;27.17;17.42;;;;;;;;;;5035602;28;20722;-76
2021/01/30 06:10:46;;;;;;;30.10;18.27;;;;;;;;;;5018228;28;20283;-76
2021/01/30 06:13:14;;;;;;;24.83;16.73;;;;;;;;;;5023033;28;20195;-74
2021/01/30 06:15:44;;;;;;;25.10;16.05;;;;;;;;;;5018498;28;20223;-75
2021/01/30 06:18:19;;;;;;;24.48;16.70;;;;;;;;;;5004818;28;20212;-75
2021/01/30 06:20:57;;;;;;;26.02;16.15;;;;;;;;;;5016917;28;20223;-75
2021/01/30 06:23:23;;;;;;;28.00;17.85;;;;;;;;;;5013658;28;20290;-74
2021/01/30 06:25:50;;;;;;;24.60;14.93;;;;;;;;;;5026559;28;20222;-75
2021/01/30 06:28:22;;;;;;;22.60;15.30;;;;;;;;;;5034380;28;20269;-74
2021/01/30 06:30:50;;;;;;;28.42;17.15;;;;;;;;;;5035171;28;20226;-74
2021/01/30 06:33:22;;;;;;;24.98;16.27;;;;;;;;;;5035180;28;20257;-75
2021/01/30 06:35:48;;;;;;;24.67;16.02;;;;;;;;;;5020067;28;20214;-75
2021/01/30 06:38:19;;;;;;;24.33;17.50;;;;;;;;;;5023338;28;20227;-74
2021/01/30 06:40:51;;;;;;;28.05;17.00;;;;;;;;;;5032753;28;20253;-74
2021/01/30 06:43:23;;;;;;;29.15;19.02;;;;;;;;;;5015405;28;20198;-75
2021/01/30 06:45:53;;;;;;;28.48;18.33;;;;;;;;;;5032971;28;20214;-74
2021/01/30 06:48:28;;;;;;;26.15;17.27;;;;;;;;;;5033964;28;20199;-74
2021/01/30 06:50:55;;;;;;;27.00;18.52;;;;;;;;;;5034872;28;20197;-74
2021/01/30 06:53:25;;;;;;;33.53;19.85;;;;;;;;;;5034624;28;20613;-74
2021/01/30 06:55:52;;;;;;;32.67;18.40;;;;;;;;;;5003981;28;20255;-74
2021/01/30 06:58:22;;;;;;;30.08;19.48;;;;;;;;;;5001348;28;20307;-74
2021/01/30 07:00:48;;;;;;;30.73;19.55;;;;;;;;;;5025631;28;20199;-73
2021/01/30 07:03:19;;;;;;;27.00;19.13;;;;;;;;;;5032481;28;20298;-73
2021/01/30 07:05:47;;;;;;;30.52;19.95;;;;;;;;;;5030512;28;20298;-74
2021/01/30 07:08:23;;;;;;;28.45;18.92;;;;;;;;;;5012899;28;20227;-73
2021/01/30 07:10:54;;;;;;;29.17;17.15;;;;;;;;;;5033060;28;20210;-75
2021/01/30 07:13:25;;;;;;;26.92;15.02;;;;;;;;;;5017049;28;20192;-75
2021/01/30 07:15:58;;;;;;;16.90;11.68;;;;;;;;;;5034263;28;20220;-75
2021/01/30 07:18:29;;;;;;;15.27;10.57;;;;;;;;;;5029661;28;20220;-74
2021/01/30 07:21:02;;;;;;;16.50;10.73;;;;;;;;;;5018402;28;20288;-74
2021/01/30 07:23:34;;;;;;;18.02;11.02;;;;;;;;;;5028715;28;20665;-74
2021/01/30 07:26:04;;;;;;;19.27;12.30;;;;;;;;;;5032015;28;20222;-75
2021/01/30 07:28:34;;;;;;;15.93;11.00;;;;;;;;;;5031916;28;20199;-74
2021/01/30 07:31:03;;;;;;;17.25;11.52;;;;;;;;;;5031999;28;20206;-74
2021/01/30 07:33:35;;;;;;;18.58;11.48;;;;;;;;;;5034315;28;20687;-75
2021/01/30 07:36:05;;;;;;;19.33;12.43;;;;;;;;;;5034064;28;20583;-74
2021/01/30 07:38:34;;;;;;;22.20;13.98;;;;;;;;;;5016616;28;20653;-75
2021/01/30 07:41:03;;;;;;;22.58;14.80;;;;;;;;;;5007705;28;20207;-75
2021/01/30 07:43:31;;;;;;;21.90;14.82;;;;;;;;;;5017701;28;20200;-74
2021/01/30 07:46:08;;;;;;;20.40;13.40;;;;;;;;;;4994461;28;20231;-74
2021/01/30 07:48:38;;;;;;;18.92;13.80;;;;;;;;;;4994473;28;20196;-75
2021/01/30 07:51:07;;;;;;;22.58;14.00;;;;;;;;;;5011744;28;20207;-73
2021/01/30 07:53:33;;;;;;;23.27;15.38;;;;;;;;;;5019059;28;20227;-75
2021/01/30 07:56:07;;;;;;;23.02;14.68;;;;;;;;;;5033399;28;20215;-73
2021/01/30 07:58:39;;;;;;;23.95;16.90;;;;;;;;;;5018655;28;20212;-74
2021/01/30 08:01:13;;;;;;;26.02;16.02;;;;;;;;;;5020520;28;20241;-74
2021/01/30 08:03:54;;;;;;;27.20;17.60;;;;;;;;;;5013631;28;20192;-75
2021/01/30 08:06:26;;;;;;;27.60;17.73;;;;;;;;;;5015495;28;20713;-74
2021/01/30 08:09:01;;;;;;;27.73;19.13;;;;;;;;;;5031484;28;20195;-74
2021/01/30 08:11:29;;;;;;;27.15;17.58;;;;;;;;;;5032968;28;20294;-74
2021/01/30 08:14:00;;;;;;;27.05;16.98;;;;;;;;;;5033491;28;20249;-74
2021/01/30 08:16:34;;;;;;;30.23;19.42;;;;;;;;;;5033151;28;20220;-74
2021/01/30 08:19:03;;;;;;;29.63;19.02;;;;;;;;;;5030955;28;20207;-74
2021/01/30 08:21:34;;;;;;;28.27;18.30;;;;;;;;;;5017234;28;20189;-74
2021/01/30 08:24:03;;;;;;;27.25;18.65;;;;;;;;;;5013550;28;20601;-74
2021/01/30 08:26:33;;;;;;;37.95;22.95;;;;;;;;;;5011370;28;20633;-74
2021/01/30 08:29:09;;;;;;;30.83;19.95;;;;;;;;;;5025168;28;20194;-75
2021/01/30 08:31:37;;;;;;;30.25;20.25;;;;;;;;;;5031203;28;20272;-74
2021/01/30 08:34:06;;;;;;;32.85;20.15;;;;;;;;;;5015786;28;20192;-74
2021/01/30 08:36:35;;;;;;;31.50;19.52;;;;;;;;;;5015769;28;20224;-74
2021/01/30 08:39:04;;;;;;;33.28;21.42;;;;;;;;;;5033066;28;20679;-74
2021/01/30 08:41:42;;;;;;;36.45;21.15;;;;;;;;;;5012560;28;20246;-74
2021/01/30 08:44:18;;;;;;;33.75;20.77;;;;;;;;;;5015589;28;20272;-74
2021/01/30 08:46:47;;;;;;;32.90;20.10;;;;;;;;;;5011384;28;20230;-74
2021/01/30 08:49:23;;;;;;;33.75;21.13;;;;;;;;;;5029997;28;20290;-74
2021/01/30 08:51:51;;;;;;;32.45;19.23;;;;;;;;;;5014362;28;20267;-75
2021/01/30 08:54:27;;;;;;;32.03;21.15;;;;;;;;;;5031647;28;20227;-74
2021/01/30 08:56:54;;;;;;;32.80;20.23;;;;;;;;;;5020675;28;20311;-75
2021/01/30 08:59:35;;;;;;;37.03;22.55;;;;;;;;;;5004253;28;20254;-75
2021/01/30 09:02:02;;;;;;;35.42;20.50;;;;;;;;;;5013543;28;20291;-75
2021/01/30 09:04:42;;;;;;;32.72;19.52;;;;;;;;;;5022093;28;20191;-74
2021/01/30 09:07:09;;;;;;;35.50;21.45;;;;;;;;;;5004418;28;20323;-74
2021/01/30 09:09:56;;;;;;;35.65;21.35;;;;;;;;;;5031568;28;20206;-75
2021/01/30 09:12:37;;;;;;;40.13;22.95;;;;;;;;;;5020782;28;20207;-74
2021/01/30 09:15:06;;;;;;;37.00;23.23;;;;;;;;;;5020532;28;20282;-75
2021/01/30 09:17:37;;;;;;;32.63;19.63;;;;;;;;;;5036184;28;20247;-75
2021/01/30 09:20:19;;;;;;;35.08;20.67;;;;;;;;;;5021626;28;20249;-75
2021/01/30 09:22:54;;;;;;;36.22;21.30;;;;;;;;;;5001558;28;20200;-75
2021/01/30 09:25:27;;;;;;;35.10;20.70;;;;;;;;;;4996999;28;20566;-74
2021/01/30 09:27:59;;;;;;;36.33;21.70;;;;;;;;;;5014399;28;20210;-74
2021/01/30 09:30:31;;;;;;;33.85;19.58;;;;;;;;;;5015944;28;20554;-75
2021/01/30 09:33:00;;;;;;;32.55;20.35;;;;;;;;;;5036341;28;20231;-74
2021/01/30 09:35:30;;;;;;;36.58;21.30;;;;;;;;;;5034662;28;20211;-75
2021/01/30 09:37:56;;;;;;;33.35;20.40;;;;;;;;;;5034116;28;20310;-74
2021/01/30 09:40:26;;;;;;;36.15;20.65;;;;;;;;;;5031528;28;20283;-74
2021/01/30 09:42:57;;;;;;;32.50;19.10;;;;;;;;;;5000974;28;20215;-72
2021/01/30 09:45:25;;;;;;;38.20;21.10;;;;;;;;;;5013530;28;20318;-74
2021/01/30 09:47:54;;;;;;;34.42;21.05;;;;;;;;;;5012486;28;20204;-74
2021/01/30 09:50:22;;;;;;;32.10;17.80;;;;;;;;;;5013308;28;20556;-74
2021/01/30 09:52:51;;;;;;;32.95;20.08;;;;;;;;;;5014567;28;20197;-74
2021/01/30 09:55:20;;;;;;;31.15;19.67;;;;;;;;;;5019130;28;20269;-74
2021/01/30 09:57:48;;;;;;;30.25;18.60;;;;;;;;;;5035969;28;20547;-75
2021/01/30 10:00:17;;;;;;;27.50;18.10;;;;;;;;;;5035938;28;20286;-74
2021/01/30 10:02:44;;;;;;;31.40;21.08;;;;;;;;;;5021332;28;20203;-75
2021/01/30 10:05:14;;;;;;;29.38;19.65;;;;;;;;;;5016026;28;20233;-74
2021/01/30 10:07:42;;;;;;;30.63;20.00;;;;;;;;;;5011977;28;20238;-74
2021/01/30 10:10:26;;;;;;;32.60;20.30;;;;;;;;;;5030171;28;20206;-74
2021/01/30 10:12:53;;;;;;;31.00;19.33;;;;;;;;;;5012474;28;20192;-75
2021/01/30 10:15:26;;;;;;;25.63;17.75;;;;;;;;;;5012380;28;20234;-74
2021/01/30 10:17:53;;;;;;;32.25;19.75;;;;;;;;;;5031551;28;20558;-75
2021/01/30 10:20:21;;;;;;;27.95;19.00;;;;;;;;;;5031442;28;20198;-75
2021/01/30 10:22:49;;;;;;;31.15;19.70;;;;;;;;;;5031859;28;20198;-75
2021/01/30 10:25:18;;;;;;;31.98;20.33;;;;;;;;;;5020956;28;20223;-75
2021/01/30 10:27:45;;;;;;;30.73;18.27;;;;;;;;;;5016842;28;20533;-74
2021/01/30 10:30:14;;;;;;;27.52;17.63;;;;;;;;;;5029138;28;20257;-74
2021/01/30 10:32:42;;;;;;;29.10;17.73;;;;;;;;;;5029770;28;20202;-75
2021/01/30 10:35:11;;;;;;;30.02;19.55;;;;;;;;;;5012207;28;20195;-75
2021/01/30 10:37:41;;;;;;;29.95;18.00;;;;;;;;;;5029705;28;20234;-73
2021/01/30 10:40:10;;;;;;;32.10;20.00;;;;;;;;;;5013860;28;20298;-75
2021/01/30 10:42:38;;;;;;;29.48;19.48;;;;;;;;;;5030746;28;20277;-75
2021/01/30 10:45:13;;;;;;;29.50;17.55;;;;;;;;;;5031200;28;20207;-74
2021/01/30 10:47:40;;;;;;;28.30;17.50;;;;;;;;;;5021200;28;20229;-74
2021/01/30 10:50:09;;;;;;;26.10;17.08;;;;;;;;;;5014407;28;20203;-74
2021/01/30 10:52:36;;;;;;;25.60;15.63;;;;;;;;;;5018381;28;20196;-76
2021/01/30 10:55:17;;;;;;;26.10;16.23;;;;;;;;;;5031184;28;20287;-74
2021/01/30 10:57:45;;;;;;;24.45;16.63;;;;;;;;;;5031301;28;20334;-75
2021/01/30 11:00:22;;;;;;;27.90;16.65;;;;;;;;;;5031070;28;20196;-74
2021/01/30 11:02:49;;;;;;;27.25;16.30;;;;;;;;;;5034797;28;20333;-74
2021/01/30 11:05:36;;;;;;;23.88;15.45;;;;;;;;;;5034388;28;20224;-75
2021/01/30 11:08:05;;;;;;;22.05;15.57;;;;;;;;;;5019867;28;20650;-75
2021/01/30 11:10:36;;;;;;;26.30;16.73;;;;;;;;;;5020313;28;20205;-75
2021/01/30 11:13:12;;;;;;;22.30;14.73;;;;;;;;;;5001575;28;20286;-75
2021/01/30 11:15:42;;;;;;;23.08;14.35;;;;;;;;;;5031476;28;20306;-74
2021/01/30 11:18:14;;;;;;;23.77;13.80;;;;;;;;;;5012242;28;20232;-74
2021/01/30 11:20:42;;;;;;;20.67;13.95;;;;;;;;;;5019976;28;20249;-74
2021/01/30 11:23:09;;;;;;;18.88;13.35;;;;;;;;;;5016110;28;20245;-75
2021/01/30 11:25:39;;;;;;;19.50;13.77;;;;;;;;;;5034139;28;20226;-74
2021/01/30 11:28:06;;;;;;;19.17;12.77;;;;;;;;;;5016728;28;20278;-75
2021/01/30 11:30:33;;;;;;;18.92;13.90;;;;;;;;;;5034061;28;20610;-75
2021/01/30 11:33:02;;;;;;;17.63;13.18;;;;;;;;;;5020032;28;20196;-75
2021/01/30 11:35:33;;;;;;;18.25;12.18;;;;;;;;;;5021709;28;20240;-75
2021/01/30 11:38:02;;;;;;;19.30;13.90;;;;;;;;;;5031800;28;20220;-75
2021/01/30 11:40:29;;;;;;;17.05;13.48;;;;;;;;;;5031706;28;20206;-75
2021/01/30 11:42:55;;;;;;;14.77;10.52;;;;;;;;;;5031357;28;20278;-75
2021/01/30 11:45:22;;;;;;;18.02;12.55;;;;;;;;;;5032418;28;20230;-75
2021/01/30 11:47:50;;;;;;;16.95;11.60;;;;;;;;;;5033465;28;20198;-74
2021/01/30 11:50:16;;;;;;;15.18;12.10;;;;;;;;;;5017357;28;20275;-74
2021/01/30 11:52:43;;;;;;;18.42;12.60;;;;;;;;;;5019798;28;20184;-75
2021/01/30 11:55:11;;;;;;;18.67;12.95;;;;;;;;;;5020327;28;20217;-74
2021/01/30 11:57:37;;;;;;;18.92;13.40;;;;;;;;;;5015745;28;20208;-74
2021/01/30 12:00:05;;;;;;;19.25;13.57;;;;;;;;;;5011749;28;20242;-74
2021/01/30 12:02:34;;;;;;;15.00;11.75;;;;;;;;;;5011489;28;20657;-75
2021/01/30 12:05:02;;;;;;;14.93;11.48;;;;;;;;;;5018264;28;20211;-74
2021/01/30 12:07:29;;;;;;;16.95;12.80;;;;;;;;;;5000068;28;20243;-75
2021/01/30 12:09:56;;;;;;;17.83;13.27;;;;;;;;;;4994192;28;20197;-74
2021/01/30 12:12:22;;;;;;;18.92;13.45;;;;;;;;;;4983750;28;20689;-75
2021/01/30 12:14:49;;;;;;;16.60;11.50;;;;;;;;;;4978280;28;20710;-74
2021/01/30 12:17:19;;;;;;;18.50;12.00;;;;;;;;;;4991252;28;20315;-75
2021/01/30 12:19:45;;;;;;;15.63;11.80;;;;;;;;;;4990389;28;20633;-74
2021/01/30 12:22:13;;;;;;;18.05;11.80;;;;;;;;;;4991952;28;20207;-75
2021/01/30 12:24:41;;;;;;;17.67;12.70;;;;;;;;;;4992315;28;20201;-74
2021/01/30 12:27:08;;;;;;;17.95;12.63;;;;;;;;;;4996246;28;20662;-74
2021/01/30 12:29:34;;;;;;;16.90;11.75;;;;;;;;;;4998084;28;20201;-74
2021/01/30 12:32:01;;;;;;;16.30;11.85;;;;;;;;;;4997563;28;20262;-74
2021/01/30 12:34:28;;;;;;;17.20;13.07;;;;;;;;;;4992323;28;20201;-75
2021/01/30 12:36:55;;;;;;;17.15;11.88;;;;;;;;;;4982485;28;20209;-74
2021/01/30 12:39:22;;;;;;;14.30;11.10;;;;;;;;;;4990843;28;20269;-74
2021/01/30 12:41:49;;;;;;;13.77;10.57;;;;;;;;;;4993997;28;20222;-74
2021/01/30 12:44:16;;;;;;;13.50;10.98;;;;;;;;;;4994445;28;20193;-74
2021/01/30 12:46:44;;;;;;;11.60;9.80;;;;;;;;;;4993466;28;20221;-75
2021/01/30 12:49:11;;;;;;;10.85;9.02;;;;;;;;;;4994826;28;20231;-75
2021/01/30 12:51:39;;;;;;;9.90;8.43;;;;;;;;;;4986632;28;20351;-74
2021/01/30 12:54:06;;;;;;;10.55;8.50;;;;;;;;;;4980250;28;20226;-75
2021/01/30 12:56:34;;;;;;;10.27;8.73;;;;;;;;;;4993663;28;20228;-74
2021/01/30 12:59:01;;;;;;;11.40;8.45;;;;;;;;;;4995289;28;20221;-75
2021/01/30 13:01:27;;;;;;;7.95;7.15;;;;;;;;;;4995410;28;20211;-74
2021/01/30 13:03:54;;;;;;;7.90;5.93;;;;;;;;;;4995373;28;20255;-74
2021/01/30 13:06:21;;;;;;;6.32;5.72;;;;;;;;;;4990286;28;20216;-74
2021/01/30 13:08:48;;;;;;;5.57;5.07;;;;;;;;;;5020619;28;20254;-74
2021/01/30 13:11:16;;;;;;;5.25;4.80;;;;;;;;;;5021005;28;20200;-75
2021/01/30 13:13:44;;;;;;;5.05;4.65;;;;;;;;;;4997440;28;20213;-75
2021/01/30 13:16:11;;;;;;;5.65;4.85;;;;;;;;;;5014381;28;20654;-74
2021/01/30 13:18:38;;;;;;;5.60;5.10;;;;;;;;;;4997571;28;20230;-74
2021/01/30 13:21:06;;;;;;;5.60;5.10;;;;;;;;;;5032228;28;20597;-74
2021/01/30 13:23:33;;;;;;;5.68;4.80;;;;;;;;;;5036822;28;20196;-75
2021/01/30 13:26:00;;;;;;;5.70;4.53;;;;;;;;;;5018822;28;20211;-75
2021/01/30 13:28:27;;;;;;;5.65;4.65;;;;;;;;;;5036241;28;20294;-74
2021/01/30 13:30:55;;;;;;;5.72;5.22;;;;;;;;;;5019877;28;20262;-75
2021/01/30 13:33:22;;;;;;;5.88;4.90;;;;;;;;;;5017199;28;20192;-74
2021/01/30 13:35:49;;;;;;;5.78;4.65;;;;;;;;;;5014552;28;20222;-74
2021/01/30 13:38:15;;;;;;;5.07;4.68;;;;;;;;;;5013980;28;20228;-74
2021/01/30 13:40:42;;;;;;;5.85;4.45;;;;;;;;;;5014517;28;20204;-74
2021/01/30 13:43:09;;;;;;;5.40;4.90;;;;;;;;;;5030674;28;20202;-74
2021/01/30 13:45:36;;;;;;;6.72;5.20;;;;;;;;;;5035772;28;20298;-74
2021/01/30 13:48:04;;;;;;;5.60;4.75;;;;;;;;;;5035965;28;20204;-74
2021/01/30 13:50:31;;;;;;;5.95;5.35;;;;;;;;;;5036170;28;20554;-75
2021/01/30 13:52:58;;;;;;;5.80;4.95;;;;;;;;;;5021450;28;20226;-74
2021/01/30 13:55:25;;;;;;;5.68;5.00;;;;;;;;;;5017768;28;20569;-75
2021/01/30 13:57:51;;;;;;;5.47;4.88;;;;;;;;;;5026325;28;20216;-75
2021/01/30 14:00:19;;;;;;;5.47;4.55;;;;;;;;;;5032961;28;20202;-74
2021/01/30 14:02:46;;;;;;;6.35;4.93;;;;;;;;;;5034111;28;20198;-74
2021/01/30 14:05:14;;;;;;;5.68;5.10;;;;;;;;;;5026610;28;20226;-73
2021/01/30 14:07:41;;;;;;;7.03;5.25;;;;;;;;;;5015679;28;20631;-74
2021/01/30 14:10:10;;;;;;;5.32;4.60;;;;;;;;;;5028098;28;20232;-74
2021/01/30 14:12:37;;;;;;;5.28;4.78;;;;;;;;;;5016692;28;20284;-73
2021/01/30 14:15:04;;;;;;;5.68;5.18;;;;;;;;;;5021686;28;20194;-74
2021/01/30 14:17:31;;;;;;;4.95;4.55;;;;;;;;;;5023098;28;20238;-75
2021/01/30 14:19:58;;;;;;;4.90;4.40;;;;;;;;;;5032314;28;20196;-75
2021/01/30 14:22:27;;;;;;;5.60;5.10;;;;;;;;;;5025285;28;20206;-75
2021/01/30 14:24:54;;;;;;;5.85;5.25;;;;;;;;;;5033083;28;20188;-74
2021/01/30 14:27:21;;;;;;;6.60;5.95;;;;;;;;;;5034276;28;20213;-75
2021/01/30 14:29:50;;;;;;;7.35;5.40;;;;;;;;;;5035211;28;20614;-75
2021/01/30 14:32:18;;;;;;;4.45;4.03;;;;;;;;;;5033608;28;20211;-74
2021/01/30 14:34:44;;;;;;;5.65;4.53;;;;;;;;;;4999670;28;20198;-75